Coalville, Utah
Current Conditions -  °F | °C
As of 1:15 AM on Tuesday 21 Oct 2014 (Local Time) from K36U Reporting Station
Broken Clouds Broken Clouds  
Wind Chill: 46°   Ceiling: 9500
Heat Index: 46°   Visibility: 10mi
Dew Point: 37°   Wind: 0mph
Humidity: 71%   Direction: NA
Pressure: 30.01"   Gusts: NA
Location:  40.92°N, 111.4°W
Report Text: K36U 210715Z AUTO 00000KT 10SM BKN095 BKN120 08/03 A3001 RMK AO2
Loading
Personal Weather Stations






























Interactive Weather Map
Tropical Storm Tracking
New forecast layout! Learn more

10-Day Weather Forecast

Advertisements
Track Severe Weather on mobile